Time;durP1;ratioP1;P1;durP2;ratioP2;P2;SDS_P1;SDS_P2;PMS_P1;PMS_P2;Temp;Humidity;BMP_temperature;BMP_pressure;BME280_temperature;BME280_humidity;BME280_pressure;Samples;Min_cycle;Max_cycle;Signal;HPM_P1;HPM_P2
2023/08/13 00:01:51;;;;;;;16.20;2.85;;;;;;;;;;5054709;28;20017;-26
2023/08/13 00:04:16;;;;;;;17.63;3.17;;;;;;;;;;5054917;28;20017;-26
2023/08/13 00:06:42;;;;;;;14.77;2.85;;;;;;;;;;5054645;28;20063;-26
2023/08/13 00:09:07;;;;;;;11.27;2.87;;;;;;;;;;5051233;28;20570;-27
2023/08/13 00:11:32;;;;;;;16.80;3.08;;;;;;;;;;5052023;28;20326;-26
2023/08/13 00:13:58;;;;;;;13.73;3.05;;;;;;;;;;5051946;28;20021;-26
2023/08/13 00:16:23;;;;;;;21.02;3.47;;;;;;;;;;5052313;28;20104;-26
2023/08/13 00:18:48;;;;;;;15.60;2.60;;;;;;;;;;5051966;28;20110;-27
2023/08/13 00:21:13;;;;;;;20.40;3.03;;;;;;;;;;5052022;28;20263;-26
2023/08/13 00:23:38;;;;;;;13.53;2.53;;;;;;;;;;5052868;28;20661;-26
2023/08/13 00:26:04;;;;;;;26.02;3.63;;;;;;;;;;5053897;28;20727;-26
2023/08/13 00:28:30;;;;;;;16.73;3.00;;;;;;;;;;5053954;28;20088;-27
2023/08/13 00:30:55;;;;;;;16.55;2.97;;;;;;;;;;5054360;28;20610;-27
2023/08/13 00:33:20;;;;;;;12.07;2.93;;;;;;;;;;5053883;28;20092;-27
2023/08/13 00:35:46;;;;;;;14.88;3.28;;;;;;;;;;5053725;28;20362;-27
2023/08/13 00:38:11;;;;;;;19.63;3.00;;;;;;;;;;5053017;28;20456;-27
2023/08/13 00:40:36;;;;;;;19.00;2.97;;;;;;;;;;5053756;28;20264;-27
2023/08/13 00:43:02;;;;;;;13.90;3.05;;;;;;;;;;5053732;28;20013;-27
2023/08/13 00:45:28;;;;;;;16.23;2.97;;;;;;;;;;5053952;28;20419;-27
2023/08/13 00:47:56;;;;;;;17.15;2.95;;;;;;;;;;5053620;28;20052;-27
2023/08/13 00:50:21;;;;;;;12.55;2.53;;;;;;;;;;5053883;28;20379;-27
2023/08/13 00:52:47;;;;;;;15.05;2.78;;;;;;;;;;5053631;28;20021;-28
2023/08/13 00:55:12;;;;;;;14.68;2.42;;;;;;;;;;5053479;28;20024;-27
2023/08/13 00:57:37;;;;;;;15.13;2.60;;;;;;;;;;5053527;28;20440;-27
2023/08/13 01:00:06;;;;;;;18.30;3.17;;;;;;;;;;5053719;28;20025;-27
2023/08/13 01:02:31;;;;;;;12.95;2.85;;;;;;;;;;5053742;28;20017;-27
2023/08/13 01:04:56;;;;;;;14.52;2.40;;;;;;;;;;5053951;28;20418;-27
2023/08/13 01:07:30;;;;;;;19.23;3.17;;;;;;;;;;5053901;28;20013;-27
2023/08/13 01:09:58;;;;;;;13.63;2.70;;;;;;;;;;5053179;28;20263;-26
2023/08/13 01:12:42;;;;;;;14.63;2.80;;;;;;;;;;5053570;28;20070;-26
2023/08/13 01:15:10;;;;;;;15.95;2.88;;;;;;;;;;5053536;28;20049;-26
2023/08/13 01:17:37;;;;;;;11.30;2.40;;;;;;;;;;5053516;28;20017;-26
2023/08/13 01:20:05;;;;;;;16.15;2.70;;;;;;;;;;5053573;28;20021;-26
2023/08/13 01:22:35;;;;;;;12.48;2.58;;;;;;;;;;5053215;28;20052;-26
2023/08/13 01:25:00;;;;;;;19.80;3.25;;;;;;;;;;5053338;28;20112;-26
2023/08/13 01:27:34;;;;;;;16.20;2.65;;;;;;;;;;5053180;28;20456;-26
2023/08/13 01:30:40;;;;;;;12.98;2.70;;;;;;;;;;5053726;28;20033;-26
2023/08/13 01:33:10;;;;;;;14.77;3.03;;;;;;;;;;4992008;28;20029;-26
2023/08/13 01:35:36;;;;;;;12.93;2.50;;;;;;;;;;4991752;28;20053;-26
2023/08/13 01:38:02;;;;;;;15.02;3.03;;;;;;;;;;5023609;28;20486;-26
2023/08/13 01:40:27;;;;;;;11.63;2.65;;;;;;;;;;5053357;28;20009;-26
2023/08/13 01:42:53;;;;;;;19.85;2.78;;;;;;;;;;5053043;28;20018;-26
2023/08/13 01:45:18;;;;;;;14.20;3.83;;;;;;;;;;5053018;28;20025;-26
2023/08/13 01:47:44;;;;;;;18.70;3.43;;;;;;;;;;5052936;28;20079;-26
2023/08/13 01:50:09;;;;;;;19.50;3.50;;;;;;;;;;5055401;28;20264;-26
2023/08/13 01:52:34;;;;;;;14.30;3.10;;;;;;;;;;5056838;28;20063;-26
2023/08/13 01:55:00;;;;;;;12.52;2.80;;;;;;;;;;5056998;28;20142;-26
2023/08/13 01:57:25;;;;;;;17.75;2.90;;;;;;;;;;5056833;28;20082;-27
2023/08/13 01:59:50;;;;;;;12.43;2.53;;;;;;;;;;5056767;28;20020;-27
2023/08/13 02:02:19;;;;;;;14.80;2.80;;;;;;;;;;5056985;28;20255;-27
2023/08/13 02:04:44;;;;;;;11.02;2.88;;;;;;;;;;5056664;28;20096;-27
2023/08/13 02:07:12;;;;;;;13.20;3.00;;;;;;;;;;5056601;28;20487;-26
2023/08/13 02:09:37;;;;;;;15.82;3.33;;;;;;;;;;5057087;28;20463;-27
2023/08/13 02:12:03;;;;;;;15.15;3.20;;;;;;;;;;5056384;28;20128;-27
2023/08/13 02:14:28;;;;;;;16.63;2.90;;;;;;;;;;5056438;28;20094;-28
2023/08/13 02:16:53;;;;;;;13.77;3.03;;;;;;;;;;5056758;28;20482;-27
2023/08/13 02:19:19;;;;;;;16.13;2.92;;;;;;;;;;5056659;28;20017;-27
2023/08/13 02:21:44;;;;;;;17.67;3.40;;;;;;;;;;5056250;28;20033;-26
2023/08/13 02:24:09;;;;;;;16.70;3.27;;;;;;;;;;5056345;28;20074;-26
2023/08/13 02:26:34;;;;;;;19.50;3.47;;;;;;;;;;5056573;28;20021;-26
2023/08/13 02:28:59;;;;;;;12.67;3.10;;;;;;;;;;5056795;28;20262;-26
2023/08/13 02:31:24;;;;;;;14.43;3.53;;;;;;;;;;5056102;28;20321;-27
2023/08/13 02:33:50;;;;;;;20.63;3.70;;;;;;;;;;5056010;28;20020;-26
2023/08/13 02:36:15;;;;;;;13.83;3.40;;;;;;;;;;5056076;28;20267;-26
2023/08/13 02:38:40;;;;;;;13.43;3.45;;;;;;;;;;5056315;28;20260;-26
2023/08/13 02:41:05;;;;;;;20.93;3.50;;;;;;;;;;5056221;28;20086;-26
2023/08/13 02:43:48;;;;;;;15.23;3.30;;;;;;;;;;5056186;28;20359;-26
2023/08/13 02:46:14;;;;;;;;;;;;;;;;;;5056594;28;20041;-26
2023/08/13 02:48:39;;;;;;;16.77;3.50;;;;;;;;;;5055818;28;19927;-26
2023/08/13 02:51:04;;;;;;;17.93;3.50;;;;;;;;;;5055773;28;20017;-26
2023/08/13 02:53:29;;;;;;;15.97;3.10;;;;;;;;;;5056317;28;20091;-26
2023/08/13 02:55:54;;;;;;;14.57;3.07;;;;;;;;;;5055928;28;20079;-26
2023/08/13 02:58:19;;;;;;;17.10;3.57;;;;;;;;;;5056181;28;20255;-26
2023/08/13 03:00:45;;;;;;;14.67;3.27;;;;;;;;;;5054838;28;20375;-26
2023/08/13 03:03:10;;;;;;;14.20;3.05;;;;;;;;;;5055673;28;20256;-26
2023/08/13 03:05:35;;;;;;;11.23;3.10;;;;;;;;;;5056078;28;20067;-26
2023/08/13 03:08:00;;;;;;;16.98;3.53;;;;;;;;;;5055972;28;20472;-26
2023/08/13 03:10:25;;;;;;;11.37;3.00;;;;;;;;;;5055265;28;20507;-26
2023/08/13 03:12:51;;;;;;;17.58;3.38;;;;;;;;;;5055350;28;20252;-26
2023/08/13 03:15:16;;;;;;;12.17;3.37;;;;;;;;;;5055530;28;20036;-26
2023/08/13 03:17:41;;;;;;;17.43;3.57;;;;;;;;;;5055318;28;20730;-26
2023/08/13 03:20:06;;;;;;;14.43;3.20;;;;;;;;;;5055249;28;20306;-27
2023/08/13 03:22:32;;;;;;;18.40;3.35;;;;;;;;;;5055842;28;20338;-27
2023/08/13 03:24:57;;;;;;;17.03;3.30;;;;;;;;;;5055165;28;20021;-27
2023/08/13 03:27:22;;;;;;;15.88;3.25;;;;;;;;;;5055662;28;20256;-27
2023/08/13 03:29:47;;;;;;;17.38;3.30;;;;;;;;;;5055016;28;20035;-27
2023/08/13 03:32:12;;;;;;;21.70;3.10;;;;;;;;;;5055091;28;20025;-27
2023/08/13 03:34:38;;;;;;;17.60;3.33;;;;;;;;;;5055189;28;20024;-27
2023/08/13 03:37:03;;;;;;;12.07;3.10;;;;;;;;;;5055246;28;20640;-27
2023/08/13 03:39:28;;;;;;;14.87;3.37;;;;;;;;;;5054863;28;20248;-26
2023/08/13 03:41:53;;;;;;;13.03;2.97;;;;;;;;;;5054877;28;20263;-26
2023/08/13 03:44:19;;;;;;;16.13;3.22;;;;;;;;;;5055035;28;20614;-26
2023/08/13 03:46:44;;;;;;;12.60;3.13;;;;;;;;;;5054712;28;20086;-26
2023/08/13 03:49:09;;;;;;;14.20;3.00;;;;;;;;;;5054999;28;20256;-26
2023/08/13 03:51:34;;;;;;;12.87;3.20;;;;;;;;;;5055147;28;20333;-26
2023/08/13 03:53:59;;;;;;;15.73;3.20;;;;;;;;;;5054547;28;20311;-26
2023/08/13 03:56:25;;;;;;;16.50;3.10;;;;;;;;;;5054465;28;20021;-26
2023/08/13 03:58:51;;;;;;;12.52;3.03;;;;;;;;;;5054776;28;20104;-26
2023/08/13 04:01:16;;;;;;;17.30;3.50;;;;;;;;;;5055004;28;20412;-26
2023/08/13 04:03:41;;;;;;;14.38;2.75;;;;;;;;;;5054696;28;20067;-27
2023/08/13 04:06:07;;;;;;;16.73;3.20;;;;;;;;;;5054331;28;20055;-27
2023/08/13 04:08:34;;;;;;;14.00;2.93;;;;;;;;;;5054398;28;20239;-27
2023/08/13 04:10:59;;;;;;;15.80;3.15;;;;;;;;;;5054132;28;20279;-27
2023/08/13 04:13:24;;;;;;;16.30;3.00;;;;;;;;;;5054794;28;20017;-27
2023/08/13 04:15:49;;;;;;;14.87;3.00;;;;;;;;;;5054423;28;20788;-27
2023/08/13 04:18:15;;;;;;;16.47;3.50;;;;;;;;;;5054119;28;20259;-27
2023/08/13 04:20:40;;;;;;;15.43;2.92;;;;;;;;;;5054629;28;20270;-27
2023/08/13 04:23:05;;;;;;;12.30;2.90;;;;;;;;;;5054050;28;20013;-27
2023/08/13 04:25:31;;;;;;;12.48;3.10;;;;;;;;;;5052754;28;20480;-27
2023/08/13 04:27:56;;;;;;;15.30;2.97;;;;;;;;;;5054245;28;20468;-27
2023/08/13 04:30:21;;;;;;;16.13;3.00;;;;;;;;;;5054093;28;20013;-27
2023/08/13 04:32:56;;;;;;;12.50;3.33;;;;;;;;;;5054097;28;20456;-26
2023/08/13 04:35:24;;;;;;;15.93;3.47;;;;;;;;;;5054298;28;20275;-27
2023/08/13 04:37:50;;;;;;;16.15;3.08;;;;;;;;;;5054351;28;20112;-26
2023/08/13 04:40:15;;;;;;;11.45;3.05;;;;;;;;;;5054341;28;20424;-26
2023/08/13 04:42:41;;;;;;;12.00;3.03;;;;;;;;;;5053672;28;20092;-26
2023/08/13 04:45:06;;;;;;;11.85;2.80;;;;;;;;;;5052461;28;20031;-26
2023/08/13 04:47:31;;;;;;;9.98;2.67;;;;;;;;;;5053694;28;20067;-26
2023/08/13 04:49:57;;;;;;;15.53;3.23;;;;;;;;;;5053668;28;20074;-26
2023/08/13 04:52:22;;;;;;;15.80;3.07;;;;;;;;;;5053555;28;20260;-26
2023/08/13 04:54:47;;;;;;;13.50;2.90;;;;;;;;;;5053742;28;20340;-26
2023/08/13 04:57:12;;;;;;;14.35;3.00;;;;;;;;;;5053430;28;20309;-27
2023/08/13 04:59:38;;;;;;;12.13;2.70;;;;;;;;;;5053453;28;20017;-26
2023/08/13 05:02:03;;;;;;;13.68;2.60;;;;;;;;;;5053735;28;20021;-26
2023/08/13 05:04:28;;;;;;;13.00;3.13;;;;;;;;;;5053739;28;20028;-26
2023/08/13 05:06:53;;;;;;;15.63;2.92;;;;;;;;;;5053428;28;20471;-27
2023/08/13 05:09:19;;;;;;;13.10;2.93;;;;;;;;;;5053382;28;20099;-28
2023/08/13 05:11:44;;;;;;;8.45;2.65;;;;;;;;;;5053176;28;20390;-26
2023/08/13 05:14:09;;;;;;;10.27;3.00;;;;;;;;;;5053337;28;20451;-26
2023/08/13 05:16:34;;;;;;;10.30;2.87;;;;;;;;;;5053283;28;20279;-26
2023/08/13 05:19:00;;;;;;;18.87;3.17;;;;;;;;;;5053878;28;20254;-27
2023/08/13 05:21:25;;;;;;;10.83;2.60;;;;;;;;;;5053839;28;20256;-27
2023/08/13 05:23:50;;;;;;;18.60;3.17;;;;;;;;;;5053249;28;20665;-27
2023/08/13 05:26:15;;;;;;;10.87;2.90;;;;;;;;;;5057888;28;20255;-27
2023/08/13 05:28:40;;;;;;;15.40;2.90;;;;;;;;;;5057588;28;20256;-26
2023/08/13 05:31:06;;;;;;;13.48;2.83;;;;;;;;;;5057591;28;20017;-27
2023/08/13 05:33:31;;;;;;;12.85;3.10;;;;;;;;;;5057414;28;20013;-27
2023/08/13 05:35:56;;;;;;;14.80;2.70;;;;;;;;;;5057057;28;20463;-27
2023/08/13 05:38:22;;;;;;;16.52;2.88;;;;;;;;;;5057405;28;20266;-27
2023/08/13 05:40:47;;;;;;;17.75;2.88;;;;;;;;;;5057485;28;20013;-27
2023/08/13 05:43:12;;;;;;;11.50;2.83;;;;;;;;;;5057114;28;20100;-27
2023/08/13 05:45:37;;;;;;;9.93;2.40;;;;;;;;;;5057024;28;20025;-27
2023/08/13 05:48:03;;;;;;;15.80;2.73;;;;;;;;;;5057033;28;20107;-27
2023/08/13 05:50:29;;;;;;;13.95;2.78;;;;;;;;;;5057027;28;20610;-27
2023/08/13 05:52:54;;;;;;;14.38;2.70;;;;;;;;;;5057670;28;20025;-27
2023/08/13 05:55:19;;;;;;;17.10;2.67;;;;;;;;;;5057101;28;20024;-27
2023/08/13 05:57:45;;;;;;;10.10;2.30;;;;;;;;;;5057112;28;20360;-27
2023/08/13 06:00:12;;;;;;;16.20;2.70;;;;;;;;;;5056750;28;20468;-27
2023/08/13 06:02:38;;;;;;;11.57;2.53;;;;;;;;;;5056635;28;20251;-27
2023/08/13 06:05:04;;;;;;;13.82;2.58;;;;;;;;;;5056686;28;20032;-27
2023/08/13 06:07:29;;;;;;;12.57;2.47;;;;;;;;;;5056919;28;20017;-27
2023/08/13 06:09:54;;;;;;;13.53;2.73;;;;;;;;;;5057236;28;20364;-27
2023/08/13 06:12:20;;;;;;;13.63;2.70;;;;;;;;;;5056617;28;20017;-27
2023/08/13 06:14:48;;;;;;;10.53;2.50;;;;;;;;;;5057451;28;20017;-27
2023/08/13 06:17:16;;;;;;;9.48;2.30;;;;;;;;;;5056498;28;20104;-28
2023/08/13 06:19:42;;;;;;;11.25;2.50;;;;;;;;;;5055185;28;20021;-27
2023/08/13 06:22:07;;;;;;;10.18;2.40;;;;;;;;;;5056559;28;20105;-27
2023/08/13 06:24:33;;;;;;;14.13;2.63;;;;;;;;;;5056651;28;20104;-27
2023/08/13 06:26:58;;;;;;;11.30;2.70;;;;;;;;;;5057124;28;20025;-28
2023/08/13 06:29:23;;;;;;;12.87;2.90;;;;;;;;;;5056177;28;20055;-27
2023/08/13 06:31:48;;;;;;;13.70;2.80;;;;;;;;;;5055997;28;20112;-27
2023/08/13 06:34:14;;;;;;;10.85;2.58;;;;;;;;;;5056066;28;20525;-28
2023/08/13 06:36:40;;;;;;;10.70;2.60;;;;;;;;;;5055016;28;20048;-27
2023/08/13 06:39:05;;;;;;;10.88;2.80;;;;;;;;;;5056638;28;20024;-27
2023/08/13 06:41:31;;;;;;;12.43;2.60;;;;;;;;;;5056002;28;20021;-27
2023/08/13 06:43:56;;;;;;;10.82;2.58;;;;;;;;;;5056473;28;20013;-27
2023/08/13 06:46:21;;;;;;;12.15;2.58;;;;;;;;;;5055983;28;20019;-27
2023/08/13 06:48:46;;;;;;;12.57;2.53;;;;;;;;;;5055847;28;20082;-27
2023/08/13 06:51:12;;;;;;;12.17;2.47;;;;;;;;;;5056105;28;20020;-27
2023/08/13 06:53:37;;;;;;;10.50;2.50;;;;;;;;;;5056010;28;20044;-27
2023/08/13 06:56:03;;;;;;;15.43;3.05;;;;;;;;;;5055676;28;20075;-27
2023/08/13 06:58:28;;;;;;;11.93;2.80;;;;;;;;;;5055676;28;20020;-27
2023/08/13 07:00:53;;;;;;;8.20;2.40;;;;;;;;;;5054417;28;20498;-26
2023/08/13 07:03:18;;;;;;;9.37;2.60;;;;;;;;;;5055610;28;20080;-26
2023/08/13 07:05:44;;;;;;;9.50;2.63;;;;;;;;;;5056112;28;20413;-26
2023/08/13 07:08:12;;;;;;;10.32;2.75;;;;;;;;;;5055769;28;20025;-26
2023/08/13 07:10:38;;;;;;;10.85;2.70;;;;;;;;;;5055472;28;20126;-26
2023/08/13 07:13:04;;;;;;;9.55;2.50;;;;;;;;;;5055411;28;20438;-26
2023/08/13 07:15:29;;;;;;;10.05;2.65;;;;;;;;;;5055305;28;20033;-26
2023/08/13 07:17:54;;;;;;;11.43;2.87;;;;;;;;;;5055365;28;20494;-26
2023/08/13 07:20:19;;;;;;;14.43;2.60;;;;;;;;;;5055574;28;20032;-26
2023/08/13 07:22:45;;;;;;;8.87;2.77;;;;;;;;;;5055276;28;20024;-28
2023/08/13 07:25:11;;;;;;;9.82;2.70;;;;;;;;;;5055993;28;20025;-28
2023/08/13 07:27:37;;;;;;;10.88;2.70;;;;;;;;;;5055092;28;20032;-27
2023/08/13 07:30:02;;;;;;;10.35;2.92;;;;;;;;;;5054987;28;20078;-27
2023/08/13 07:32:28;;;;;;;11.93;2.60;;;;;;;;;;5055333;28;20071;-27
2023/08/13 07:34:53;;;;;;;11.25;2.45;;;;;;;;;;5055189;28;20017;-27
2023/08/13 07:37:18;;;;;;;6.70;2.05;;;;;;;;;;5054359;28;20476;-28
2023/08/13 07:39:44;;;;;;;8.33;2.10;;;;;;;;;;5054278;28;20024;-27
2023/08/13 07:42:09;;;;;;;11.07;2.20;;;;;;;;;;5054122;28;20025;-27
2023/08/13 07:44:35;;;;;;;11.30;2.70;;;;;;;;;;5054100;28;20029;-27
2023/08/13 07:47:00;;;;;;;9.82;2.40;;;;;;;;;;5053740;28;20343;-27
2023/08/13 07:49:26;;;;;;;9.65;2.30;;;;;;;;;;5054018;28;20017;-27
2023/08/13 07:51:52;;;;;;;10.27;2.30;;;;;;;;;;5054678;28;20021;-27
2023/08/13 07:54:17;;;;;;;8.30;2.10;;;;;;;;;;5054768;28;20419;-27
2023/08/13 07:56:43;;;;;;;10.77;2.27;;;;;;;;;;5054547;28;20013;-27
2023/08/13 07:59:09;;;;;;;9.48;2.05;;;;;;;;;;5054758;28;20013;-27
2023/08/13 08:01:34;;;;;;;9.68;2.05;;;;;;;;;;5054395;28;20013;-27
2023/08/13 08:03:59;;;;;;;10.52;2.20;;;;;;;;;;5054455;28;20031;-27
2023/08/13 08:06:25;;;;;;;13.93;2.70;;;;;;;;;;5054890;28;20056;-27
2023/08/13 08:08:50;;;;;;;9.73;2.22;;;;;;;;;;5054313;28;20024;-27
2023/08/13 08:11:15;;;;;;;10.95;2.50;;;;;;;;;;5054076;28;20558;-27
2023/08/13 08:13:42;;;;;;;15.57;2.70;;;;;;;;;;5054651;28;20029;-28
2023/08/13 08:16:07;;;;;;;11.98;2.53;;;;;;;;;;5053896;28;20025;-27
2023/08/13 08:18:33;;;;;;;13.30;2.33;;;;;;;;;;5053997;28;20020;-27
2023/08/13 08:20:58;;;;;;;9.90;2.20;;;;;;;;;;5053877;28;20264;-27
2023/08/13 08:23:23;;;;;;;11.53;2.20;;;;;;;;;;5054443;28;20017;-27
2023/08/13 08:25:49;;;;;;;13.27;2.85;;;;;;;;;;5054566;28;20413;-27
2023/08/13 08:28:14;;;;;;;9.93;2.33;;;;;;;;;;5054063;28;20116;-27
2023/08/13 08:30:40;;;;;;;11.77;2.60;;;;;;;;;;5053716;28;20025;-27
2023/08/13 08:33:05;;;;;;;9.55;2.33;;;;;;;;;;5054277;28;20259;-27
2023/08/13 08:35:31;;;;;;;13.13;2.45;;;;;;;;;;5053964;28;20017;-27
2023/08/13 08:37:56;;;;;;;10.02;2.17;;;;;;;;;;5053914;28;20017;-27
2023/08/13 08:40:22;;;;;;;11.63;2.50;;;;;;;;;;5053972;28;20023;-27
2023/08/13 08:42:47;;;;;;;13.53;2.40;;;;;;;;;;5053929;28;20248;-27
2023/08/13 08:45:13;;;;;;;11.03;2.27;;;;;;;;;;5053626;28;20342;-27
2023/08/13 08:47:39;;;;;;;10.05;2.10;;;;;;;;;;5053515;28;20267;-27
2023/08/13 08:50:04;;;;;;;6.88;2.10;;;;;;;;;;5053416;28;20033;-28
2023/08/13 08:52:31;;;;;;;9.85;2.00;;;;;;;;;;5053440;28;20017;-27
2023/08/13 08:54:56;;;;;;;12.95;2.35;;;;;;;;;;5053416;28;20028;-27
2023/08/13 08:57:22;;;;;;;9.63;2.17;;;;;;;;;;5053673;28;20021;-27
2023/08/13 08:59:47;;;;;;;11.23;2.30;;;;;;;;;;5052708;28;20096;-27
2023/08/13 09:02:13;;;;;;;9.03;2.13;;;;;;;;;;5054413;28;20043;-28
2023/08/13 09:04:38;;;;;;;9.35;2.50;;;;;;;;;;5053425;28;20258;-27
2023/08/13 09:07:03;;;;;;;8.25;2.40;;;;;;;;;;5053628;28;20025;-27
2023/08/13 09:09:29;;;;;;;9.23;2.10;;;;;;;;;;5053571;28;20024;-27
2023/08/13 09:11:55;;;;;;;7.80;2.00;;;;;;;;;;5053099;28;20048;-27
2023/08/13 09:14:20;;;;;;;6.20;1.60;;;;;;;;;;5053376;28;20025;-27
2023/08/13 09:16:46;;;;;;;6.20;1.60;;;;;;;;;;5053409;28;20128;-27
2023/08/13 09:19:12;;;;;;;7.30;1.75;;;;;;;;;;5053452;28;20017;-27
2023/08/13 09:21:37;;;;;;;8.20;1.80;;;;;;;;;;5053088;28;20028;-27
2023/08/13 09:24:02;;;;;;;7.90;1.92;;;;;;;;;;5053129;28;20028;-27
2023/08/13 09:26:27;;;;;;;7.60;2.08;;;;;;;;;;5053077;28;20017;-27
2023/08/13 09:28:53;;;;;;;6.93;1.90;;;;;;;;;;5053388;28;20017;-27
2023/08/13 09:31:18;;;;;;;9.45;2.22;;;;;;;;;;5053053;28;20372;-27
2023/08/13 09:33:46;;;;;;;12.00;2.50;;;;;;;;;;5053044;28;20025;-27
2023/08/13 09:36:12;;;;;;;7.95;1.60;;;;;;;;;;5053225;28;20029;-26
2023/08/13 09:38:37;;;;;;;11.30;2.50;;;;;;;;;;5053284;28;20036;-26
2023/08/13 09:41:04;;;;;;;8.10;1.90;;;;;;;;;;5052995;28;20259;-26
2023/08/13 09:43:30;;;;;;;7.57;1.90;;;;;;;;;;5052928;28;20341;-26
2023/08/13 09:45:55;;;;;;;8.43;1.90;;;;;;;;;;5052803;28;20101;-26
2023/08/13 09:48:23;;;;;;;8.57;2.15;;;;;;;;;;5052381;28;20057;-26
2023/08/13 09:50:48;;;;;;;8.60;2.13;;;;;;;;;;5052695;28;20017;-26
2023/08/13 09:53:14;;;;;;;7.88;1.70;;;;;;;;;;5052048;28;20028;-26
2023/08/13 09:55:43;;;;;;;7.30;2.28;;;;;;;;;;5052287;28;20027;-26
2023/08/13 09:58:10;;;;;;;10.05;1.80;;;;;;;;;;5052373;28;20020;-26
2023/08/13 10:00:35;;;;;;;8.73;2.00;;;;;;;;;;5052327;28;20074;-26
2023/08/13 10:03:01;;;;;;;9.15;2.13;;;;;;;;;;5053151;28;20013;-26
2023/08/13 10:05:28;;;;;;;7.07;2.05;;;;;;;;;;5052811;28;20035;-26
2023/08/13 10:07:53;;;;;;;6.75;1.88;;;;;;;;;;5053043;28;20013;-27
2023/08/13 10:10:19;;;;;;;8.98;2.15;;;;;;;;;;5053461;28;20051;-26
2023/08/13 10:12:44;;;;;;;7.97;2.40;;;;;;;;;;5056547;28;20108;-27
2023/08/13 10:15:10;;;;;;;9.77;2.50;;;;;;;;;;5056692;28;20017;-27
2023/08/13 10:17:35;;;;;;;12.35;2.58;;;;;;;;;;5056776;28;20449;-27
2023/08/13 10:20:00;;;;;;;9.70;2.42;;;;;;;;;;5057000;28;20084;-27
2023/08/13 10:22:34;;;;;;;11.88;2.38;;;;;;;;;;5055145;28;20043;-27
2023/08/13 10:24:59;;;;;;;13.13;2.63;;;;;;;;;;5056384;28;20016;-26
2023/08/13 10:27:25;;;;;;;9.18;2.30;;;;;;;;;;5056261;28;20371;-27
2023/08/13 10:30:02;;;;;;;10.60;2.53;;;;;;;;;;5056152;28;20020;-26
2023/08/13 10:32:27;;;;;;;13.75;2.72;;;;;;;;;;5056319;28;20111;-26
2023/08/13 10:34:54;;;;;;;8.83;2.50;;;;;;;;;;5055914;28;20104;-26
2023/08/13 10:37:20;;;;;;;9.63;2.40;;;;;;;;;;5056233;28;20282;-26
2023/08/13 10:39:46;;;;;;;15.05;2.70;;;;;;;;;;5056335;28;20046;-27
2023/08/13 10:42:27;;;;;;;9.00;2.10;;;;;;;;;;5056218;28;20035;-27
2023/08/13 10:45:04;;;;;;;10.88;2.40;;;;;;;;;;5056268;28;20032;-27
2023/08/13 10:47:50;;;;;;;7.78;2.13;;;;;;;;;;5055809;28;20056;-27
2023/08/13 10:50:19;;;;;;;8.60;2.22;;;;;;;;;;5055335;28;20036;-27
2023/08/13 10:52:52;;;;;;;7.53;1.70;;;;;;;;;;5056016;28;20468;-27
2023/08/13 10:55:28;;;;;;;8.45;1.92;;;;;;;;;;5055633;28;20032;-27
2023/08/13 10:57:53;;;;;;;8.07;1.73;;;;;;;;;;5055883;28;20510;-27
2023/08/13 11:00:22;;;;;;;8.18;2.15;;;;;;;;;;5055775;28;20043;-27
2023/08/13 11:02:52;;;;;;;10.20;2.28;;;;;;;;;;5055800;28;20013;-27
2023/08/13 11:05:17;;;;;;;9.40;2.20;;;;;;;;;;5055716;28;20376;-27
2023/08/13 11:07:43;;;;;;;10.35;2.40;;;;;;;;;;5055646;28;20028;-27
2023/08/13 11:10:14;;;;;;;8.93;2.20;;;;;;;;;;5055291;28;20048;-27
2023/08/13 11:12:39;;;;;;;10.60;2.03;;;;;;;;;;5055391;28;20024;-27
2023/08/13 11:15:04;;;;;;;10.07;2.50;;;;;;;;;;5055294;28;20033;-27
2023/08/13 11:17:30;;;;;;;11.80;2.33;;;;;;;;;;5055653;28;20013;-27
2023/08/13 11:19:56;;;;;;;14.50;2.30;;;;;;;;;;5056111;28;20043;-27
2023/08/13 11:22:23;;;;;;;6.50;1.65;;;;;;;;;;5054849;28;20064;-27
2023/08/13 11:24:48;;;;;;;7.93;1.50;;;;;;;;;;5055301;28;20492;-28
2023/08/13 11:27:13;;;;;;;6.95;1.20;;;;;;;;;;5054357;28;20021;-27
2023/08/13 11:29:39;;;;;;;6.15;1.23;;;;;;;;;;5055587;28;20049;-27
2023/08/13 11:32:04;;;;;;;6.83;1.20;;;;;;;;;;5054159;28;20025;-27
2023/08/13 11:34:29;;;;;;;4.45;1.45;;;;;;;;;;5052934;28;20029;-27
2023/08/13 11:36:56;;;;;;;4.57;1.40;;;;;;;;;;5052841;28;20021;-27
2023/08/13 11:39:22;;;;;;;4.25;1.30;;;;;;;;;;5053304;28;20025;-27
2023/08/13 11:41:47;;;;;;;5.20;1.30;;;;;;;;;;5053254;28;20017;-27
2023/08/13 11:44:13;;;;;;;4.70;1.38;;;;;;;;;;5053035;28;20478;-27
2023/08/13 11:47:10;;;;;;;9.60;1.88;;;;;;;;;;5053731;28;20067;-27
2023/08/13 11:49:42;;;;;;;6.25;1.48;;;;;;;;;;5032181;28;20482;-27
2023/08/13 11:52:07;;;;;;;9.35;1.90;;;;;;;;;;5054723;28;20021;-27
2023/08/13 11:54:34;;;;;;;7.70;2.20;;;;;;;;;;5054517;28;20028;-27
2023/08/13 11:56:59;;;;;;;4.93;1.60;;;;;;;;;;5054604;28;20021;-27
2023/08/13 11:59:25;;;;;;;8.47;1.97;;;;;;;;;;5054520;28;20460;-27
2023/08/13 12:01:52;;;;;;;8.13;2.05;;;;;;;;;;5054842;28;20590;-27
2023/08/13 12:04:17;;;;;;;5.75;1.67;;;;;;;;;;5054717;28;20028;-27
2023/08/13 12:06:44;;;;;;;5.50;1.60;;;;;;;;;;5054971;28;20021;-27
2023/08/13 12:09:09;;;;;;;6.32;1.77;;;;;;;;;;5054352;28;20103;-27
2023/08/13 12:11:35;;;;;;;8.67;1.80;;;;;;;;;;5054166;28;20120;-27
2023/08/13 12:14:04;;;;;;;8.93;2.37;;;;;;;;;;5054180;28;20263;-27
2023/08/13 12:16:29;;;;;;;6.72;2.17;;;;;;;;;;5054450;28;20260;-27
2023/08/13 12:18:54;;;;;;;10.20;2.60;;;;;;;;;;5054764;28;20025;-27
2023/08/13 12:21:19;;;;;;;10.80;2.63;;;;;;;;;;5054460;28;20025;-27
2023/08/13 12:23:44;;;;;;;7.67;2.27;;;;;;;;;;5054638;28;20009;-27
2023/08/13 12:26:10;;;;;;;14.67;2.80;;;;;;;;;;5054075;28;20102;-27
2023/08/13 12:28:35;;;;;;;10.07;2.50;;;;;;;;;;5053953;28;20379;-28
2023/08/13 12:31:00;;;;;;;12.83;2.83;;;;;;;;;;5054156;28;20263;-26
2023/08/13 12:33:25;;;;;;;9.50;2.73;;;;;;;;;;5053949;28;20456;-27
2023/08/13 12:35:51;;;;;;;12.80;2.95;;;;;;;;;;5053730;28;20021;-26
2023/08/13 12:38:16;;;;;;;14.60;3.03;;;;;;;;;;5054145;28;20019;-26
2023/08/13 12:40:41;;;;;;;9.73;2.43;;;;;;;;;;5053753;28;20306;-26
2023/08/13 12:43:06;;;;;;;12.00;2.80;;;;;;;;;;5053981;28;20490;-26
2023/08/13 12:45:31;;;;;;;12.40;2.63;;;;;;;;;;5053780;28;20025;-27
2023/08/13 12:47:57;;;;;;;13.97;2.80;;;;;;;;;;5053649;28;20320;-26
2023/08/13 12:50:22;;;;;;;8.85;2.67;;;;;;;;;;5053885;28;20310;-26
2023/08/13 12:52:47;;;;;;;11.70;2.47;;;;;;;;;;5053641;28;20028;-27
2023/08/13 12:55:12;;;;;;;10.23;3.00;;;;;;;;;;5053600;28;20290;-27
2023/08/13 12:57:38;;;;;;;11.07;2.70;;;;;;;;;;5054088;28;20278;-27
2023/08/13 13:00:04;;;;;;;11.97;3.03;;;;;;;;;;5054600;28;20513;-27
2023/08/13 13:02:30;;;;;;;15.02;2.80;;;;;;;;;;5053362;28;20096;-27
2023/08/13 13:04:55;;;;;;;12.68;2.97;;;;;;;;;;5053696;28;20044;-27
2023/08/13 13:07:20;;;;;;;9.13;2.70;;;;;;;;;;5053477;28;20501;-27
2023/08/13 13:09:46;;;;;;;11.33;2.83;;;;;;;;;;5053435;28;20713;-27
2023/08/13 13:12:12;;;;;;;13.45;3.13;;;;;;;;;;5053411;28;20487;-27
2023/08/13 13:14:37;;;;;;;13.73;3.40;;;;;;;;;;5053568;28;20110;-27
2023/08/13 13:17:02;;;;;;;12.93;2.93;;;;;;;;;;5053351;28;20017;-27
2023/08/13 13:19:27;;;;;;;11.80;2.80;;;;;;;;;;5053632;28;20027;-27
2023/08/13 13:21:52;;;;;;;13.70;2.80;;;;;;;;;;5053311;28;20257;-26
2023/08/13 13:24:18;;;;;;;14.03;3.10;;;;;;;;;;5053516;28;20066;-26
2023/08/13 13:26:43;;;;;;;13.00;3.00;;;;;;;;;;5053108;28;20017;-27
2023/08/13 13:29:08;;;;;;;12.57;3.22;;;;;;;;;;5053695;28;20033;-27
2023/08/13 13:31:33;;;;;;;12.07;2.50;;;;;;;;;;5053145;28;20017;-27
2023/08/13 13:33:58;;;;;;;16.60;3.10;;;;;;;;;;5052089;28;20032;-27
2023/08/13 13:36:24;;;;;;;11.23;3.27;;;;;;;;;;5053648;28;20263;-27
2023/08/13 13:38:49;;;;;;;14.65;3.40;;;;;;;;;;5053282;28;20025;-27
2023/08/13 13:41:14;;;;;;;15.13;3.17;;;;;;;;;;5053094;28;20510;-27
2023/08/13 13:43:40;;;;;;;13.45;2.97;;;;;;;;;;5053347;28;20013;-27
2023/08/13 13:46:05;;;;;;;11.37;3.17;;;;;;;;;;5055137;28;20021;-26
2023/08/13 13:48:30;;;;;;;13.60;3.20;;;;;;;;;;5057011;28;20287;-26
2023/08/13 13:50:55;;;;;;;12.37;3.10;;;;;;;;;;5057225;28;20287;-26
2023/08/13 13:53:21;;;;;;;12.77;3.17;;;;;;;;;;5056929;28;20299;-26
2023/08/13 13:55:46;;;;;;;14.40;3.00;;;;;;;;;;5056700;28;20322;-26
2023/08/13 13:58:11;;;;;;;12.25;3.10;;;;;;;;;;5057132;28;20016;-26
2023/08/13 14:00:37;;;;;;;12.77;3.30;;;;;;;;;;5057384;28;20417;-27
2023/08/13 14:03:02;;;;;;;13.17;3.43;;;;;;;;;;5057322;28;20761;-27
2023/08/13 14:05:27;;;;;;;11.48;3.15;;;;;;;;;;5057004;28;20120;-27
2023/08/13 14:07:52;;;;;;;8.32;2.63;;;;;;;;;;5057185;28;20025;-27
2023/08/13 14:10:18;;;;;;;4.40;1.40;;;;;;;;;;5057064;28;20128;-27
2023/08/13 14:12:43;;;;;;;6.43;1.30;;;;;;;;;;5056559;28;20682;-26
2023/08/13 14:15:08;;;;;;;3.77;0.93;;;;;;;;;;5056714;28;20841;-26
2023/08/13 14:17:34;;;;;;;2.65;0.77;;;;;;;;;;5056584;28;20021;-26
2023/08/13 14:19:59;;;;;;;1.95;0.70;;;;;;;;;;5056702;28;20014;-26
2023/08/13 14:22:24;;;;;;;2.60;0.90;;;;;;;;;;5056663;28;20037;-27
2023/08/13 14:24:49;;;;;;;2.72;0.80;;;;;;;;;;5056365;28;20258;-26
2023/08/13 14:27:15;;;;;;;2.40;0.70;;;;;;;;;;5056626;28;20016;-26